sensor_id;sensor_type;location;lat;lon;timestamp;P1;durP1;ratioP1;P2;durP2;ratioP2
66893;SDS011;53801;55.786;49.142;2023-03-01T00:00:34;8.33;;;2.43;;
66893;SDS011;53801;55.786;49.142;2023-03-01T00:02:59;13.10;;;2.65;;
66893;SDS011;53801;55.786;49.142;2023-03-01T00:05:25;12.27;;;3.30;;
66893;SDS011;53801;55.786;49.142;2023-03-01T00:07:52;6.47;;;2.20;;
66893;SDS011;53801;55.786;49.142;2023-03-01T00:10:18;5.80;;;1.67;;
66893;SDS011;53801;55.786;49.142;2023-03-01T00:12:43;5.90;;;1.67;;
66893;SDS011;53801;55.786;49.142;2023-03-01T00:15:08;6.63;;;1.30;;
66893;SDS011;53801;55.786;49.142;2023-03-01T00:17:36;7.22;;;1.90;;
66893;SDS011;53801;55.786;49.142;2023-03-01T00:20:01;7.73;;;1.83;;
66893;SDS011;53801;55.786;49.142;2023-03-01T00:22:27;8.77;;;1.90;;
66893;SDS011;53801;55.786;49.142;2023-03-01T00:24:53;5.05;;;1.83;;
66893;SDS011;53801;55.786;49.142;2023-03-01T00:27:19;4.97;;;1.70;;
66893;SDS011;53801;55.786;49.142;2023-03-01T00:29:44;6.03;;;1.60;;
66893;SDS011;53801;55.786;49.142;2023-03-01T00:32:10;3.70;;;1.50;;
66893;SDS011;53801;55.786;49.142;2023-03-01T00:34:35;4.93;;;2.20;;
66893;SDS011;53801;55.786;49.142;2023-03-01T00:37:01;4.47;;;1.60;;
66893;SDS011;53801;55.786;49.142;2023-03-01T00:39:30;4.75;;;1.40;;
66893;SDS011;53801;55.786;49.142;2023-03-01T00:41:56;4.82;;;1.73;;
66893;SDS011;53801;55.786;49.142;2023-03-01T00:44:21;5.03;;;2.00;;
66893;SDS011;53801;55.786;49.142;2023-03-01T00:46:47;4.33;;;1.63;;
66893;SDS011;53801;55.786;49.142;2023-03-01T00:49:13;6.87;;;1.93;;
66893;SDS011;53801;55.786;49.142;2023-03-01T00:51:38;4.57;;;1.65;;
66893;SDS011;53801;55.786;49.142;2023-03-01T00:54:09;4.93;;;1.40;;
66893;SDS011;53801;55.786;49.142;2023-03-01T00:56:34;6.47;;;1.20;;
66893;SDS011;53801;55.786;49.142;2023-03-01T00:59:00;4.93;;;1.50;;
66893;SDS011;53801;55.786;49.142;2023-03-01T01:01:27;3.53;;;1.70;;
66893;SDS011;53801;55.786;49.142;2023-03-01T01:04:00;3.63;;;1.48;;
66893;SDS011;53801;55.786;49.142;2023-03-01T01:06:26;5.22;;;1.60;;
66893;SDS011;53801;55.786;49.142;2023-03-01T01:08:52;2.53;;;0.82;;
66893;SDS011;53801;55.786;49.142;2023-03-01T01:11:18;4.87;;;1.40;;
66893;SDS011;53801;55.786;49.142;2023-03-01T01:13:44;5.25;;;1.80;;
66893;SDS011;53801;55.786;49.142;2023-03-01T01:16:10;5.00;;;1.67;;
66893;SDS011;53801;55.786;49.142;2023-03-01T01:18:35;6.33;;;1.20;;
66893;SDS011;53801;55.786;49.142;2023-03-01T01:21:08;4.60;;;1.40;;
66893;SDS011;53801;55.786;49.142;2023-03-01T01:23:34;3.58;;;1.10;;
66893;SDS011;53801;55.786;49.142;2023-03-01T01:29:00;4.13;;;1.33;;
66893;SDS011;53801;55.786;49.142;2023-03-01T01:31:26;2.65;;;0.80;;
66893;SDS011;53801;55.786;49.142;2023-03-01T01:33:53;4.78;;;1.58;;
66893;SDS011;53801;55.786;49.142;2023-03-01T01:36:19;5.22;;;1.23;;
66893;SDS011;53801;55.786;49.142;2023-03-01T01:38:44;4.53;;;1.17;;
66893;SDS011;53801;55.786;49.142;2023-03-01T01:41:11;3.87;;;1.37;;
66893;SDS011;53801;55.786;49.142;2023-03-01T01:43:37;3.60;;;1.30;;
66893;SDS011;53801;55.786;49.142;2023-03-01T01:46:04;3.47;;;1.00;;
66893;SDS011;53801;55.786;49.142;2023-03-01T01:48:37;5.33;;;0.93;;
66893;SDS011;53801;55.786;49.142;2023-03-01T01:51:05;3.53;;;1.13;;
66893;SDS011;53801;55.786;49.142;2023-03-01T01:53:31;3.55;;;1.27;;
66893;SDS011;53801;55.786;49.142;2023-03-01T01:55:58;3.20;;;0.80;;
66893;SDS011;53801;55.786;49.142;2023-03-01T01:58:24;4.18;;;1.30;;
66893;SDS011;53801;55.786;49.142;2023-03-01T02:00:51;2.58;;;0.90;;
66893;SDS011;53801;55.786;49.142;2023-03-01T02:03:18;4.13;;;1.17;;
66893;SDS011;53801;55.786;49.142;2023-03-01T02:06:03;3.15;;;1.10;;
66893;SDS011;53801;55.786;49.142;2023-03-01T02:08:29;3.93;;;0.90;;
66893;SDS011;53801;55.786;49.142;2023-03-01T02:10:55;3.17;;;1.10;;
66893;SDS011;53801;55.786;49.142;2023-03-01T02:13:21;3.42;;;1.23;;
66893;SDS011;53801;55.786;49.142;2023-03-01T02:15:46;4.07;;;0.90;;
66893;SDS011;53801;55.786;49.142;2023-03-01T02:18:12;4.53;;;0.93;;
66893;SDS011;53801;55.786;49.142;2023-03-01T02:20:59;5.22;;;1.00;;
66893;SDS011;53801;55.786;49.142;2023-03-01T02:23:27;3.08;;;0.88;;
66893;SDS011;53801;55.786;49.142;2023-03-01T02:25:57;6.10;;;1.13;;
66893;SDS011;53801;55.786;49.142;2023-03-01T02:28:36;6.13;;;1.03;;
66893;SDS011;53801;55.786;49.142;2023-03-01T02:31:03;2.20;;;0.85;;
66893;SDS011;53801;55.786;49.142;2023-03-01T02:33:48;3.38;;;0.90;;
66893;SDS011;53801;55.786;49.142;2023-03-01T02:36:15;2.40;;;0.90;;
66893;SDS011;53801;55.786;49.142;2023-03-01T02:38:42;2.47;;;0.70;;
66893;SDS011;53801;55.786;49.142;2023-03-01T02:41:07;2.92;;;0.85;;
66893;SDS011;53801;55.786;49.142;2023-03-01T02:43:33;3.90;;;1.15;;
66893;SDS011;53801;55.786;49.142;2023-03-01T02:46:04;5.82;;;0.98;;
66893;SDS011;53801;55.786;49.142;2023-03-01T02:48:38;3.55;;;1.10;;
66893;SDS011;53801;55.786;49.142;2023-03-01T02:51:06;3.03;;;1.00;;
66893;SDS011;53801;55.786;49.142;2023-03-01T02:53:46;5.47;;;1.60;;
66893;SDS011;53801;55.786;49.142;2023-03-01T02:56:15;3.03;;;1.10;;
66893;SDS011;53801;55.786;49.142;2023-03-01T02:58:41;4.13;;;1.30;;
66893;SDS011;53801;55.786;49.142;2023-03-01T03:01:13;4.07;;;1.30;;
66893;SDS011;53801;55.786;49.142;2023-03-01T03:03:41;3.22;;;1.00;;
66893;SDS011;53801;55.786;49.142;2023-03-01T03:06:06;3.27;;;0.97;;
66893;SDS011;53801;55.786;49.142;2023-03-01T03:08:32;3.08;;;1.00;;
66893;SDS011;53801;55.786;49.142;2023-03-01T03:10:57;3.53;;;0.57;;
66893;SDS011;53801;55.786;49.142;2023-03-01T03:13:22;3.70;;;1.40;;
66893;SDS011;53801;55.786;49.142;2023-03-01T03:15:53;3.25;;;0.77;;
66893;SDS011;53801;55.786;49.142;2023-03-01T03:18:19;3.40;;;1.03;;
66893;SDS011;53801;55.786;49.142;2023-03-01T03:20:44;3.93;;;1.23;;
66893;SDS011;53801;55.786;49.142;2023-03-01T03:23:10;3.15;;;0.80;;
66893;SDS011;53801;55.786;49.142;2023-03-01T03:25:36;3.80;;;1.17;;
66893;SDS011;53801;55.786;49.142;2023-03-01T03:28:03;3.00;;;0.85;;
66893;SDS011;53801;55.786;49.142;2023-03-01T03:30:34;3.85;;;1.33;;
66893;SDS011;53801;55.786;49.142;2023-03-01T03:33:00;4.65;;;0.93;;
66893;SDS011;53801;55.786;49.142;2023-03-01T03:35:29;3.63;;;0.88;;
66893;SDS011;53801;55.786;49.142;2023-03-01T03:37:55;4.10;;;1.10;;
66893;SDS011;53801;55.786;49.142;2023-03-01T03:40:31;5.15;;;1.00;;
66893;SDS011;53801;55.786;49.142;2023-03-01T03:42:57;2.45;;;0.65;;
66893;SDS011;53801;55.786;49.142;2023-03-01T03:45:22;3.37;;;0.90;;
66893;SDS011;53801;55.786;49.142;2023-03-01T03:47:48;4.40;;;0.70;;
66893;SDS011;53801;55.786;49.142;2023-03-01T03:50:14;3.00;;;1.20;;
66893;SDS011;53801;55.786;49.142;2023-03-01T03:52:40;3.78;;;1.10;;
66893;SDS011;53801;55.786;49.142;2023-03-01T03:55:06;3.27;;;0.93;;
66893;SDS011;53801;55.786;49.142;2023-03-01T03:57:45;5.05;;;1.23;;
66893;SDS011;53801;55.786;49.142;2023-03-01T04:00:17;5.33;;;1.40;;
66893;SDS011;53801;55.786;49.142;2023-03-01T04:02:44;2.97;;;1.02;;
66893;SDS011;53801;55.786;49.142;2023-03-01T04:05:10;4.43;;;1.00;;
66893;SDS011;53801;55.786;49.142;2023-03-01T04:07:36;5.57;;;1.27;;
66893;SDS011;53801;55.786;49.142;2023-03-01T04:10:06;5.07;;;1.02;;
66893;SDS011;53801;55.786;49.142;2023-03-01T04:12:32;3.10;;;0.93;;
66893;SDS011;53801;55.786;49.142;2023-03-01T04:14:59;3.45;;;1.08;;
66893;SDS011;53801;55.786;49.142;2023-03-01T04:17:25;4.72;;;1.58;;
66893;SDS011;53801;55.786;49.142;2023-03-01T04:19:50;5.93;;;1.60;;
66893;SDS011;53801;55.786;49.142;2023-03-01T04:22:15;4.67;;;1.50;;
66893;SDS011;53801;55.786;49.142;2023-03-01T04:24:43;8.10;;;1.63;;
66893;SDS011;53801;55.786;49.142;2023-03-01T04:27:09;5.40;;;1.55;;
66893;SDS011;53801;55.786;49.142;2023-03-01T04:29:35;4.40;;;1.27;;
66893;SDS011;53801;55.786;49.142;2023-03-01T04:32:00;7.13;;;1.63;;
66893;SDS011;53801;55.786;49.142;2023-03-01T04:34:26;4.00;;;1.20;;
66893;SDS011;53801;55.786;49.142;2023-03-01T04:36:52;4.17;;;1.33;;
66893;SDS011;53801;55.786;49.142;2023-03-01T04:39:18;7.05;;;1.65;;
66893;SDS011;53801;55.786;49.142;2023-03-01T04:41:43;4.87;;;1.43;;
66893;SDS011;53801;55.786;49.142;2023-03-01T04:44:09;7.55;;;1.67;;
66893;SDS011;53801;55.786;49.142;2023-03-01T04:46:35;5.97;;;1.57;;
66893;SDS011;53801;55.786;49.142;2023-03-01T04:49:01;6.10;;;1.55;;
66893;SDS011;53801;55.786;49.142;2023-03-01T04:51:26;5.67;;;1.70;;
66893;SDS011;53801;55.786;49.142;2023-03-01T04:53:51;6.17;;;1.67;;
66893;SDS011;53801;55.786;49.142;2023-03-01T04:56:17;6.80;;;1.83;;
66893;SDS011;53801;55.786;49.142;2023-03-01T04:58:45;6.78;;;1.70;;
66893;SDS011;53801;55.786;49.142;2023-03-01T05:01:17;11.40;;;1.90;;
66893;SDS011;53801;55.786;49.142;2023-03-01T05:03:44;5.82;;;1.90;;
66893;SDS011;53801;55.786;49.142;2023-03-01T05:06:10;6.67;;;1.70;;
66893;SDS011;53801;55.786;49.142;2023-03-01T05:08:36;4.18;;;1.10;;
66893;SDS011;53801;55.786;49.142;2023-03-01T05:11:02;4.22;;;1.35;;
66893;SDS011;53801;55.786;49.142;2023-03-01T05:16:46;3.25;;;1.25;;
66893;SDS011;53801;55.786;49.142;2023-03-01T05:19:11;3.87;;;1.17;;
66893;SDS011;53801;55.786;49.142;2023-03-01T05:21:40;3.03;;;0.98;;
66893;SDS011;53801;55.786;49.142;2023-03-01T05:24:26;3.85;;;1.15;;
66893;SDS011;53801;55.786;49.142;2023-03-01T05:26:52;4.30;;;0.83;;
66893;SDS011;53801;55.786;49.142;2023-03-01T05:29:22;6.50;;;1.10;;
66893;SDS011;53801;55.786;49.142;2023-03-01T05:31:53;5.35;;;1.17;;
66893;SDS011;53801;55.786;49.142;2023-03-01T05:34:23;5.17;;;1.20;;
66893;SDS011;53801;55.786;49.142;2023-03-01T05:36:49;9.75;;;1.30;;
66893;SDS011;53801;55.786;49.142;2023-03-01T05:39:21;4.03;;;1.08;;
66893;SDS011;53801;55.786;49.142;2023-03-01T05:41:48;4.45;;;1.05;;
66893;SDS011;53801;55.786;49.142;2023-03-01T05:44:16;5.65;;;0.98;;
66893;SDS011;53801;55.786;49.142;2023-03-01T05:46:42;2.73;;;0.67;;
66893;SDS011;53801;55.786;49.142;2023-03-01T05:49:07;2.50;;;0.80;;
66893;SDS011;53801;55.786;49.142;2023-03-01T05:51:33;3.93;;;0.97;;
66893;SDS011;53801;55.786;49.142;2023-03-01T05:53:59;4.93;;;0.77;;
66893;SDS011;53801;55.786;49.142;2023-03-01T05:56:24;2.90;;;0.87;;
66893;SDS011;53801;55.786;49.142;2023-03-01T05:58:59;3.57;;;1.10;;
66893;SDS011;53801;55.786;49.142;2023-03-01T06:01:30;9.98;;;1.17;;
66893;SDS011;53801;55.786;49.142;2023-03-01T06:03:56;3.60;;;1.02;;
66893;SDS011;53801;55.786;49.142;2023-03-01T06:06:22;4.37;;;0.93;;
66893;SDS011;53801;55.786;49.142;2023-03-01T06:08:47;2.78;;;0.88;;
66893;SDS011;53801;55.786;49.142;2023-03-01T06:11:13;6.90;;;1.00;;
66893;SDS011;53801;55.786;49.142;2023-03-01T06:13:38;2.13;;;0.60;;
66893;SDS011;53801;55.786;49.142;2023-03-01T06:16:04;2.92;;;1.00;;
66893;SDS011;53801;55.786;49.142;2023-03-01T06:18:30;3.23;;;0.90;;
66893;SDS011;53801;55.786;49.142;2023-03-01T06:20:56;7.30;;;1.08;;
66893;SDS011;53801;55.786;49.142;2023-03-01T19:40:42;2.25;;;0.40;;
66893;SDS011;53801;55.786;49.142;2023-03-01T19:45:50;1.45;;;0.20;;
66893;SDS011;53801;55.786;49.142;2023-03-01T19:48:21;2.63;;;0.40;;
66893;SDS011;53801;55.786;49.142;2023-03-01T19:56:26;2.90;;;0.38;;
66893;SDS011;53801;55.786;49.142;2023-03-01T20:02:09;3.22;;;0.43;;
66893;SDS011;53801;55.786;49.142;2023-03-01T20:04:36;10.37;;;0.70;;
66893;SDS011;53801;55.786;49.142;2023-03-01T20:09:43;2.65;;;0.52;;
66893;SDS011;53801;55.786;49.142;2023-03-01T20:12:10;3.20;;;0.55;;
66893;SDS011;53801;55.786;49.142;2023-03-01T20:14:46;6.70;;;0.93;;
66893;SDS011;53801;55.786;49.142;2023-03-01T20:17:15;5.10;;;0.73;;
66893;SDS011;53801;55.786;49.142;2023-03-01T20:19:41;4.32;;;0.98;;
66893;SDS011;53801;55.786;49.142;2023-03-01T20:22:12;3.90;;;0.52;;
66893;SDS011;53801;55.786;49.142;2023-03-01T20:31:18;4.17;;;0.47;;
66893;SDS011;53801;55.786;49.142;2023-03-01T20:33:47;2.75;;;0.32;;
66893;SDS011;53801;55.786;49.142;2023-03-01T20:36:14;2.63;;;0.55;;
66893;SDS011;53801;55.786;49.142;2023-03-01T20:38:44;1.10;;;0.20;;
66893;SDS011;53801;55.786;49.142;2023-03-01T20:41:33;3.53;;;0.70;;
66893;SDS011;53801;55.786;49.142;2023-03-01T20:44:37;1.10;;;0.30;;
66893;SDS011;53801;55.786;49.142;2023-03-01T20:47:09;1.42;;;0.30;;
66893;SDS011;53801;55.786;49.142;2023-03-01T20:49:35;7.38;;;0.50;;
66893;SDS011;53801;55.786;49.142;2023-03-01T20:55:11;3.72;;;0.45;;
66893;SDS011;53801;55.786;49.142;2023-03-01T20:57:40;3.27;;;0.73;;
66893;SDS011;53801;55.786;49.142;2023-03-01T21:03:09;2.45;;;0.45;;
66893;SDS011;53801;55.786;49.142;2023-03-01T21:05:36;2.47;;;0.70;;
66893;SDS011;53801;55.786;49.142;2023-03-01T21:08:13;2.45;;;0.80;;
66893;SDS011;53801;55.786;49.142;2023-03-01T21:10:42;2.03;;;0.47;;
66893;SDS011;53801;55.786;49.142;2023-03-01T21:13:17;2.67;;;0.43;;
66893;SDS011;53801;55.786;49.142;2023-03-01T21:15:53;3.45;;;0.40;;
66893;SDS011;53801;55.786;49.142;2023-03-01T21:18:19;1.88;;;0.60;;
66893;SDS011;53801;55.786;49.142;2023-03-01T21:20:48;3.07;;;0.20;;
66893;SDS011;53801;55.786;49.142;2023-03-01T21:28:41;1.83;;;0.47;;
66893;SDS011;53801;55.786;49.142;2023-03-01T21:40:09;5.25;;;0.50;;
66893;SDS011;53801;55.786;49.142;2023-03-01T21:42:35;0.40;;;0.20;;
66893;SDS011;53801;55.786;49.142;2023-03-01T21:45:03;2.03;;;0.52;;
66893;SDS011;53801;55.786;49.142;2023-03-01T21:47:32;1.53;;;0.40;;
66893;SDS011;53801;55.786;49.142;2023-03-01T21:53:10;3.22;;;0.50;;
66893;SDS011;53801;55.786;49.142;2023-03-01T21:55:36;1.85;;;0.40;;
66893;SDS011;53801;55.786;49.142;2023-03-01T21:58:03;2.83;;;0.40;;
66893;SDS011;53801;55.786;49.142;2023-03-01T22:00:33;2.95;;;0.30;;
66893;SDS011;53801;55.786;49.142;2023-03-01T22:03:03;5.03;;;0.85;;
66893;SDS011;53801;55.786;49.142;2023-03-01T22:05:29;1.48;;;0.40;;
66893;SDS011;53801;55.786;49.142;2023-03-01T22:07:58;2.07;;;0.50;;
66893;SDS011;53801;55.786;49.142;2023-03-01T22:10:33;0.80;;;0.20;;
66893;SDS011;53801;55.786;49.142;2023-03-01T22:13:18;1.63;;;0.52;;
66893;SDS011;53801;55.786;49.142;2023-03-01T22:15:45;2.42;;;0.25;;
66893;SDS011;53801;55.786;49.142;2023-03-01T22:18:11;3.53;;;0.73;;
66893;SDS011;53801;55.786;49.142;2023-03-01T22:20:37;1.80;;;0.43;;
66893;SDS011;53801;55.786;49.142;2023-03-01T22:23:16;2.13;;;0.60;;
66893;SDS011;53801;55.786;49.142;2023-03-01T22:25:42;5.30;;;0.40;;
66893;SDS011;53801;55.786;49.142;2023-03-01T22:28:08;4.07;;;0.57;;
66893;SDS011;53801;55.786;49.142;2023-03-01T22:30:36;3.40;;;0.40;;
66893;SDS011;53801;55.786;49.142;2023-03-01T22:33:07;1.97;;;0.60;;
66893;SDS011;53801;55.786;49.142;2023-03-01T22:35:33;1.75;;;0.35;;
66893;SDS011;53801;55.786;49.142;2023-03-01T22:37:59;3.47;;;0.60;;
66893;SDS011;53801;55.786;49.142;2023-03-01T22:40:25;4.07;;;0.50;;
66893;SDS011;53801;55.786;49.142;2023-03-01T22:42:56;1.67;;;0.63;;
66893;SDS011;53801;55.786;49.142;2023-03-01T22:45:23;4.30;;;0.77;;
66893;SDS011;53801;55.786;49.142;2023-03-01T22:47:49;3.17;;;0.40;;
66893;SDS011;53801;55.786;49.142;2023-03-01T22:50:14;2.70;;;0.45;;
66893;SDS011;53801;55.786;49.142;2023-03-01T22:52:40;3.90;;;0.63;;
66893;SDS011;53801;55.786;49.142;2023-03-01T22:55:06;2.90;;;0.50;;
66893;SDS011;53801;55.786;49.142;2023-03-01T22:57:32;4.82;;;0.70;;
66893;SDS011;53801;55.786;49.142;2023-03-01T22:59:57;2.43;;;0.60;;
66893;SDS011;53801;55.786;49.142;2023-03-01T23:02:23;3.80;;;0.80;;
66893;SDS011;53801;55.786;49.142;2023-03-01T23:04:49;2.17;;;0.60;;
66893;SDS011;53801;55.786;49.142;2023-03-01T23:07:14;3.58;;;0.73;;
66893;SDS011;53801;55.786;49.142;2023-03-01T23:09:40;3.67;;;0.60;;
66893;SDS011;53801;55.786;49.142;2023-03-01T23:12:06;4.87;;;0.80;;
66893;SDS011;53801;55.786;49.142;2023-03-01T23:14:34;4.75;;;1.35;;
66893;SDS011;53801;55.786;49.142;2023-03-01T23:16:59;2.00;;;0.50;;
66893;SDS011;53801;55.786;49.142;2023-03-01T23:19:25;4.00;;;0.80;;
66893;SDS011;53801;55.786;49.142;2023-03-01T23:21:51;3.70;;;1.67;;
66893;SDS011;53801;55.786;49.142;2023-03-01T23:24:19;4.72;;;1.00;;
66893;SDS011;53801;55.786;49.142;2023-03-01T23:26:45;2.10;;;0.80;;
66893;SDS011;53801;55.786;49.142;2023-03-01T23:29:14;2.30;;;0.77;;
66893;SDS011;53801;55.786;49.142;2023-03-01T23:31:39;4.15;;;0.68;;
66893;SDS011;53801;55.786;49.142;2023-03-01T23:34:05;1.57;;;0.40;;
66893;SDS011;53801;55.786;49.142;2023-03-01T23:36:31;4.20;;;0.80;;
66893;SDS011;53801;55.786;49.142;2023-03-01T23:39:04;3.85;;;0.60;;
66893;SDS011;53801;55.786;49.142;2023-03-01T23:41:31;2.67;;;1.17;;
66893;SDS011;53801;55.786;49.142;2023-03-01T23:43:57;1.98;;;0.60;;
66893;SDS011;53801;55.786;49.142;2023-03-01T23:46:24;1.95;;;0.63;;
66893;SDS011;53801;55.786;49.142;2023-03-01T23:48:52;4.45;;;0.57;;
66893;SDS011;53801;55.786;49.142;2023-03-01T23:51:17;2.85;;;0.60;;
66893;SDS011;53801;55.786;49.142;2023-03-01T23:53:44;3.40;;;0.63;;
66893;SDS011;53801;55.786;49.142;2023-03-01T23:56:24;6.03;;;0.85;;
66893;SDS011;53801;55.786;49.142;2023-03-01T23:58:53;2.30;;;0.60;;
